Time;durP1;ratioP1;P1;durP2;ratioP2;P2;SDS_P1;SDS_P2;PMS_P1;PMS_P2;Temp;Humidity;BMP_temperature;BMP_pressure;BME280_temperature;BME280_humidity;BME280_pressure;Samples;Min_cycle;Max_cycle;Signal;HPM_P1;HPM_P2
2023/03/30 00:01:13;;;;;;;28.87;14.37;;;;;;;;;;6293316;28;20032;-79
2023/03/30 00:04:14;;;;;;;29.75;15.27;;;;;;;;;;6288473;28;20386;-80
2023/03/30 00:07:15;;;;;;;26.70;13.07;;;;;;;;;;6278570;28;20027;-79
2023/03/30 00:10:19;;;;;;;28.13;12.97;;;;;;;;;;6295033;28;20410;-79
2023/03/30 00:13:19;;;;;;;25.58;14.02;;;;;;;;;;6295693;28;20019;-80
2023/03/30 00:16:20;;;;;;;23.44;12.46;;;;;;;;;;6297885;28;20017;-80
2023/03/30 00:19:20;;;;;;;26.57;12.97;;;;;;;;;;6289203;28;20146;-80
2023/03/30 00:22:20;;;;;;;25.23;12.15;;;;;;;;;;6290552;28;20055;-80
2023/03/30 00:25:22;;;;;;;31.03;13.73;;;;;;;;;;6291433;28;20058;-81
2023/03/30 00:28:23;;;;;;;29.80;12.98;;;;;;;;;;6277989;28;20013;-81
2023/03/30 00:31:24;;;;;;;24.73;13.43;;;;;;;;;;6293046;28;20386;-80
2023/03/30 00:34:24;;;;;;;27.10;13.27;;;;;;;;;;6296975;28;20032;-81
2023/03/30 00:37:24;;;;;;;28.30;13.37;;;;;;;;;;6275911;28;20021;-81
2023/03/30 00:40:25;;;;;;;24.67;11.97;;;;;;;;;;6296661;28;20013;-81
2023/03/30 00:43:26;;;;;;;25.30;12.77;;;;;;;;;;6291484;28;20383;-80
2023/03/30 00:46:27;;;;;;;23.57;11.87;;;;;;;;;;6290725;28;20509;-81
2023/03/30 00:49:28;;;;;;;30.23;12.63;;;;;;;;;;6294532;28;20017;-80
2023/03/30 00:52:29;;;;;;;25.07;13.03;;;;;;;;;;6291231;28;20025;-81
2023/03/30 00:55:30;;;;;;;22.92;10.90;;;;;;;;;;6292639;28;20403;-81
2023/03/30 00:58:31;;;;;;;19.30;9.43;;;;;;;;;;6291474;28;20412;-81
2023/03/30 01:01:33;;;;;;;25.00;12.37;;;;;;;;;;6291009;28;20024;-80
2023/03/30 01:04:36;;;;;;;26.10;12.27;;;;;;;;;;6277713;28;20031;-80
2023/03/30 01:07:38;;;;;;;23.27;11.75;;;;;;;;;;6283896;28;20410;-80
2023/03/30 01:10:38;;;;;;;;;;;;;;;;;;6274835;28;20417;-81
2023/03/30 01:13:41;;;;;;;27.45;14.27;;;;;;;;;;6293827;28;20378;-81
2023/03/30 01:16:55;;;;;;;24.77;12.50;;;;;;;;;;6293752;28;20024;-80
2023/03/30 01:20:22;;;;;;;23.13;12.43;;;;;;;;;;6291439;28;20028;-80
2023/03/30 01:23:26;;;;;;;31.20;13.50;;;;;;;;;;6293912;28;20107;-79
2023/03/30 01:26:41;;;;;;;31.10;12.38;;;;;;;;;;6291021;28;20467;-81
2023/03/30 01:30:00;;;;;;;26.75;13.15;;;;;;;;;;6292158;28;20535;-81
2023/03/30 01:33:24;;;;;;;29.42;14.27;;;;;;;;;;6286547;28;20021;-80
2023/03/30 01:36:35;;;;;;;23.65;12.88;;;;;;;;;;6295981;28;20013;-80
2023/03/30 01:39:43;;;;;;;29.90;13.07;;;;;;;;;;6294051;28;20024;-81
2023/03/30 01:42:49;;;;;;;26.48;14.23;;;;;;;;;;6283090;28;20154;-80
2023/03/30 01:45:54;;;;;;;21.50;13.25;;;;;;;;;;6294071;28;20052;-81
2023/03/30 01:48:59;;;;;;;28.63;13.95;;;;;;;;;;6293846;28;20016;-81
2023/03/30 01:52:09;;;;;;;32.58;17.63;;;;;;;;;;6297607;28;20024;-80
2023/03/30 01:55:18;;;;;;;33.35;15.13;;;;;;;;;;6292398;28;20116;-81
2023/03/30 01:58:30;;;;;;;41.10;20.08;;;;;;;;;;6289876;28;20044;-80
2023/03/30 02:01:33;;;;;;;38.33;15.35;;;;;;;;;;6297056;28;20031;-80
2023/03/30 02:04:37;;;;;;;28.55;16.20;;;;;;;;;;6296794;28;20417;-81
2023/03/30 02:07:40;;;;;;;28.95;13.38;;;;;;;;;;6277766;28;20119;-81
2023/03/30 02:10:42;;;;;;;22.90;11.63;;;;;;;;;;6296657;28;20021;-82
2023/03/30 02:13:43;;;;;;;27.55;12.95;;;;;;;;;;6293717;28;20391;-79
2023/03/30 02:16:47;;;;;;;18.90;10.97;;;;;;;;;;6293149;28;20056;-80
2023/03/30 02:19:49;;;;;;;22.70;12.20;;;;;;;;;;6293604;28;20286;-80
2023/03/30 02:22:49;;;;;;;22.48;11.15;;;;;;;;;;6288228;28;20025;-79
2023/03/30 02:25:50;;;;;;;19.97;10.87;;;;;;;;;;6294619;28;20063;-80
2023/03/30 02:28:50;;;;;;;21.63;11.35;;;;;;;;;;6290648;28;20021;-80
2023/03/30 02:31:53;;;;;;;25.50;10.93;;;;;;;;;;6294666;28;20028;-79
2023/03/30 02:35:11;;;;;;;26.83;12.43;;;;;;;;;;6290685;28;20473;-79
2023/03/30 02:38:15;;;;;;;25.98;11.93;;;;;;;;;;6290381;28;20117;-79
2023/03/30 02:41:28;;;;;;;26.95;11.95;;;;;;;;;;6289802;28;20474;-81
2023/03/30 02:44:38;;;;;;;30.40;13.55;;;;;;;;;;6297161;28;20020;-80
2023/03/30 02:47:41;;;;;;;24.52;12.80;;;;;;;;;;6288021;28;20491;-80
2023/03/30 02:50:57;;;;;;;34.08;14.35;;;;;;;;;;6296374;28;20070;-81
2023/03/30 02:54:03;;;;;;;27.33;13.90;;;;;;;;;;6291244;28;20028;-80
2023/03/30 02:57:19;;;;;;;28.45;14.73;;;;;;;;;;6292900;28;20025;-80
2023/03/30 03:00:25;;;;;;;28.92;13.88;;;;;;;;;;6293999;28;20060;-80
2023/03/30 03:03:30;;;;;;;23.70;12.55;;;;;;;;;;6295764;28;20103;-80
2023/03/30 03:06:33;;;;;;;28.70;13.48;;;;;;;;;;6296352;28;20027;-80
2023/03/30 03:09:33;;;;;;;19.38;12.00;;;;;;;;;;6290541;28;20021;-80
2023/03/30 03:12:33;;;;;;;26.13;13.27;;;;;;;;;;6293966;28;20021;-80
2023/03/30 03:15:36;;;;;;;30.40;13.57;;;;;;;;;;6296275;28;20390;-80
2023/03/30 03:18:43;;;;;;;27.10;14.20;;;;;;;;;;6290019;28;20436;-80
2023/03/30 03:21:43;;;;;;;31.73;15.23;;;;;;;;;;6292367;28;20443;-80
2023/03/30 03:24:43;;;;;;;30.17;13.57;;;;;;;;;;6295370;28;20032;-80
2023/03/30 03:27:44;;;;;;;26.38;14.05;;;;;;;;;;6295706;28;20031;-80
2023/03/30 03:30:45;;;;;;;32.60;15.00;;;;;;;;;;6295586;28;20012;-80
2023/03/30 03:33:45;;;;;;;25.97;14.43;;;;;;;;;;6296285;28;20035;-80
2023/03/30 03:36:45;;;;;;;25.27;13.63;;;;;;;;;;6294620;28;20463;-80
2023/03/30 03:39:45;;;;;;;29.33;16.42;;;;;;;;;;6295066;28;20021;-80
2023/03/30 03:42:46;;;;;;;27.73;14.70;;;;;;;;;;6289491;28;20131;-80
2023/03/30 03:45:47;;;;;;;30.25;16.45;;;;;;;;;;6289516;28;20425;-80
2023/03/30 03:48:47;;;;;;;32.13;16.40;;;;;;;;;;6295372;28;20063;-79
2023/03/30 03:51:47;;;;;;;27.90;14.93;;;;;;;;;;6291188;28;20537;-79
2023/03/30 03:54:47;;;;;;;30.20;14.83;;;;;;;;;;6274255;28;20035;-80
2023/03/30 03:57:48;;;;;;;28.10;15.00;;;;;;;;;;6291818;28;20047;-80
2023/03/30 04:00:48;;;;;;;26.33;14.77;;;;;;;;;;6295016;28;20032;-80
2023/03/30 04:03:48;;;;;;;25.73;12.77;;;;;;;;;;6295050;28;20020;-80
2023/03/30 04:06:48;;;;;;;24.08;13.00;;;;;;;;;;6294627;28;20016;-81
2023/03/30 04:09:50;;;;;;;24.73;13.97;;;;;;;;;;6271006;28;20048;-81
2023/03/30 04:12:50;;;;;;;28.02;13.25;;;;;;;;;;6284194;28;20475;-80
2023/03/30 04:15:50;;;;;;;32.65;14.27;;;;;;;;;;6289329;28;20100;-80
2023/03/30 04:18:50;;;;;;;23.77;11.50;;;;;;;;;;6289947;28;20436;-80
2023/03/30 04:21:51;;;;;;;32.78;13.52;;;;;;;;;;6289725;28;20111;-80
2023/03/30 04:24:52;;;;;;;30.20;13.87;;;;;;;;;;6292517;28;20064;-80
2023/03/30 04:27:53;;;;;;;29.00;13.63;;;;;;;;;;6294331;28;20027;-80
2023/03/30 04:30:57;;;;;;;27.23;14.95;;;;;;;;;;6294564;28;20467;-80
2023/03/30 04:34:01;;;;;;;26.75;14.00;;;;;;;;;;6277155;28;20125;-80
2023/03/30 04:37:02;;;;;;;25.27;13.07;;;;;;;;;;6297259;28;20493;-79
2023/03/30 04:40:06;;;;;;;22.80;11.87;;;;;;;;;;6296105;28;20024;-80
2023/03/30 04:43:08;;;;;;;31.23;14.68;;;;;;;;;;6297328;28;20315;-80
2023/03/30 04:46:09;;;;;;;26.95;12.20;;;;;;;;;;6295374;28;20012;-80
2023/03/30 04:49:12;;;;;;;28.77;12.10;;;;;;;;;;6280339;28;20025;-81
2023/03/30 04:52:13;;;;;;;28.38;13.65;;;;;;;;;;6300531;28;20032;-80
2023/03/30 04:55:13;;;;;;;28.30;13.87;;;;;;;;;;6293231;28;20074;-80
2023/03/30 04:58:15;;;;;;;32.10;13.57;;;;;;;;;;6295176;28;20028;-81
2023/03/30 05:01:15;;;;;;;21.90;13.52;;;;;;;;;;6294862;28;20031;-78
2023/03/30 05:04:15;;;;;;;22.67;10.95;;;;;;;;;;6295831;28;20024;-80
2023/03/30 05:07:15;;;;;;;24.42;13.70;;;;;;;;;;6299555;28;20099;-80
2023/03/30 05:10:17;;;;;;;24.67;14.30;;;;;;;;;;6303783;28;20066;-80
2023/03/30 05:13:17;;;;;;;26.55;14.55;;;;;;;;;;6297623;28;20390;-81
2023/03/30 05:16:17;;;;;;;27.58;14.88;;;;;;;;;;6299029;28;20025;-81
2023/03/30 05:19:17;;;;;;;32.87;13.97;;;;;;;;;;6294697;28;20595;-81
2023/03/30 05:22:18;;;;;;;28.30;13.93;;;;;;;;;;6290618;28;20020;-80
2023/03/30 05:25:18;;;;;;;24.27;13.87;;;;;;;;;;6298494;28;20570;-80
2023/03/30 05:28:18;;;;;;;27.17;13.85;;;;;;;;;;6299930;28;20086;-79
2023/03/30 05:31:19;;;;;;;23.00;13.13;;;;;;;;;;6286273;28;20024;-79
2023/03/30 05:34:19;;;;;;;27.40;14.03;;;;;;;;;;6304503;28;20140;-80
2023/03/30 05:37:20;;;;;;;24.03;14.30;;;;;;;;;;6299023;28;20040;-80
2023/03/30 05:40:20;;;;;;;27.55;15.32;;;;;;;;;;6294972;28;20065;-80
2023/03/30 05:43:20;;;;;;;27.17;13.35;;;;;;;;;;6290323;28;20024;-80
2023/03/30 05:46:21;;;;;;;22.83;13.33;;;;;;;;;;6295662;28;20048;-80
2023/03/30 05:49:21;;;;;;;26.00;12.67;;;;;;;;;;6291340;28;20025;-80
2023/03/30 05:52:22;;;;;;;27.48;13.05;;;;;;;;;;6287083;28;20464;-80
2023/03/30 05:55:22;;;;;;;30.13;15.50;;;;;;;;;;6293004;28;20025;-80
2023/03/30 05:58:23;;;;;;;24.13;13.80;;;;;;;;;;6292258;28;20024;-79
2023/03/30 06:01:25;;;;;;;30.65;14.20;;;;;;;;;;6297113;28;20028;-79
2023/03/30 06:04:27;;;;;;;31.13;15.77;;;;;;;;;;6278937;28;20463;-77
2023/03/30 06:07:28;;;;;;;30.85;14.65;;;;;;;;;;6290415;28;20021;-79
2023/03/30 06:10:28;;;;;;;30.57;14.50;;;;;;;;;;6293305;28;20024;-80
2023/03/30 06:13:29;;;;;;;23.13;13.70;;;;;;;;;;6295576;28;20056;-80
2023/03/30 06:16:30;;;;;;;29.60;14.80;;;;;;;;;;6289772;28;20074;-80
2023/03/30 06:19:30;;;;;;;30.48;15.32;;;;;;;;;;6278282;28;20032;-79
2023/03/30 06:22:31;;;;;;;32.22;17.02;;;;;;;;;;6284444;28;20059;-80
2023/03/30 06:25:31;;;;;;;42.80;18.13;;;;;;;;;;6296528;28;20335;-80
2023/03/30 06:28:32;;;;;;;40.07;17.63;;;;;;;;;;6295257;28;20028;-80
2023/03/30 06:31:32;;;;;;;34.17;16.80;;;;;;;;;;6284585;28;20269;-77
2023/03/30 06:34:32;;;;;;;35.58;17.63;;;;;;;;;;6294804;28;20067;-79
2023/03/30 06:37:35;;;;;;;26.80;16.00;;;;;;;;;;6295883;28;20372;-80
2023/03/30 06:40:35;;;;;;;36.15;19.02;;;;;;;;;;6295091;28;20028;-79
2023/03/30 06:43:36;;;;;;;33.57;16.93;;;;;;;;;;6295112;28;20498;-80
2023/03/30 06:46:36;;;;;;;30.83;17.80;;;;;;;;;;6295974;28;20432;-79
2023/03/30 06:49:37;;;;;;;33.60;17.90;;;;;;;;;;6291013;28;20048;-80
2023/03/30 06:52:37;;;;;;;28.77;16.57;;;;;;;;;;6294857;28;20035;-79
2023/03/30 06:55:37;;;;;;;36.97;17.03;;;;;;;;;;6292503;28;20028;-80
2023/03/30 06:58:37;;;;;;;31.58;17.48;;;;;;;;;;6293000;28;20027;-77
2023/03/30 07:01:38;;;;;;;29.00;16.33;;;;;;;;;;6288813;28;20059;-80
2023/03/30 07:04:38;;;;;;;33.17;17.00;;;;;;;;;;6277956;28;20020;-79
2023/03/30 07:07:39;;;;;;;26.27;14.97;;;;;;;;;;6294239;28;20096;-80
2023/03/30 07:10:40;;;;;;;22.77;13.50;;;;;;;;;;6290093;28;20146;-79
2023/03/30 07:13:40;;;;;;;22.73;11.57;;;;;;;;;;6294036;28;20017;-80
2023/03/30 07:16:40;;;;;;;28.47;12.30;;;;;;;;;;6295854;28;20069;-80
2023/03/30 07:19:41;;;;;;;21.83;12.30;;;;;;;;;;6295984;28;20051;-80
2023/03/30 07:22:42;;;;;;;19.30;11.02;;;;;;;;;;6295595;28;20024;-80
2023/03/30 07:25:43;;;;;;;21.00;11.53;;;;;;;;;;6288598;28;20032;-79
2023/03/30 07:28:44;;;;;;;25.90;11.30;;;;;;;;;;6292716;28;20013;-80
2023/03/30 07:31:46;;;;;;;18.10;9.40;;;;;;;;;;6295030;28;20070;-80
2023/03/30 07:34:46;;;;;;;23.35;10.95;;;;;;;;;;6294868;28;20012;-80
2023/03/30 07:37:47;;;;;;;22.47;10.33;;;;;;;;;;6275419;28;20024;-80
2023/03/30 07:40:47;;;;;;;17.63;8.80;;;;;;;;;;6288293;28;20020;-80
2023/03/30 07:43:47;;;;;;;21.87;10.30;;;;;;;;;;6291665;28;20035;-80
2023/03/30 07:46:47;;;;;;;17.13;8.97;;;;;;;;;;6291230;28;20028;-80
2023/03/30 07:49:48;;;;;;;23.13;9.70;;;;;;;;;;6291754;28;20032;-80
2023/03/30 07:52:49;;;;;;;24.57;14.27;;;;;;;;;;6294430;28;20021;-80
2023/03/30 07:55:50;;;;;;;19.52;11.60;;;;;;;;;;6287373;28;20028;-80
2023/03/30 07:58:50;;;;;;;16.90;9.70;;;;;;;;;;6288177;28;20445;-80
2023/03/30 08:01:53;;;;;;;19.70;9.87;;;;;;;;;;6290893;28;20028;-80
2023/03/30 08:04:53;;;;;;;16.33;8.73;;;;;;;;;;6294335;28;20017;-79
2023/03/30 08:07:53;;;;;;;18.52;9.30;;;;;;;;;;6290666;28;20078;-80
2023/03/30 08:10:55;;;;;;;18.47;9.97;;;;;;;;;;6290067;28;20032;-80
2023/03/30 08:13:55;;;;;;;19.27;9.15;;;;;;;;;;6289084;28;20023;-80
2023/03/30 08:16:55;;;;;;;16.10;9.43;;;;;;;;;;6274886;28;20103;-80
2023/03/30 08:19:56;;;;;;;18.30;10.63;;;;;;;;;;6291260;28;20024;-80
2023/03/30 08:22:56;;;;;;;16.00;9.13;;;;;;;;;;6289490;28;20413;-80
2023/03/30 08:25:56;;;;;;;20.55;11.95;;;;;;;;;;6289678;28;20032;-80
2023/03/30 08:28:57;;;;;;;15.97;8.17;;;;;;;;;;6291842;28;20479;-79
2023/03/30 08:31:57;;;;;;;18.07;9.27;;;;;;;;;;6289166;28;20012;-80
2023/03/30 08:34:58;;;;;;;12.77;7.38;;;;;;;;;;6275904;28;20100;-79
2023/03/30 08:37:58;;;;;;;14.02;7.72;;;;;;;;;;6288984;28;20387;-80
2023/03/30 08:40:59;;;;;;;15.00;5.70;;;;;;;;;;6285793;28;20036;-80
2023/03/30 08:44:01;;;;;;;8.63;5.70;;;;;;;;;;6270624;28;20017;-80
2023/03/30 08:47:03;;;;;;;11.25;5.78;;;;;;;;;;6293627;28;20028;-79
2023/03/30 08:50:17;;;;;;;17.10;6.60;;;;;;;;;;6288202;28;20017;-80
2023/03/30 08:53:18;;;;;;;7.82;4.72;;;;;;;;;;6290398;28;20230;-80
2023/03/30 08:56:20;;;;;;;9.00;4.07;;;;;;;;;;6279853;28;20066;-80
2023/03/30 08:59:41;;;;;;;7.75;4.15;;;;;;;;;;6283400;28;20048;-79
2023/03/30 09:02:45;;;;;;;9.68;4.50;;;;;;;;;;6288189;28;20105;-80
2023/03/30 09:05:48;;;;;;;11.63;4.55;;;;;;;;;;6292762;28;20108;-79
2023/03/30 09:08:49;;;;;;;10.63;4.20;;;;;;;;;;6291565;28;20046;-80
2023/03/30 09:12:01;;;;;;;9.18;4.40;;;;;;;;;;6290979;28;20489;-80
2023/03/30 09:15:13;;;;;;;13.05;4.90;;;;;;;;;;6286277;28;20036;-79
2023/03/30 09:18:26;;;;;;;7.82;3.08;;;;;;;;;;6290676;28;20462;-80
2023/03/30 09:21:28;;;;;;;9.95;3.50;;;;;;;;;;6286494;28;20112;-79
2023/03/30 09:24:28;;;;;;;4.70;2.25;;;;;;;;;;6287001;28;20043;-80
2023/03/30 09:27:44;;;;;;;8.13;3.13;;;;;;;;;;6288871;28;20028;-79
2023/03/30 09:30:46;;;;;;;7.05;3.40;;;;;;;;;;6291210;28;20039;-80
2023/03/30 09:33:49;;;;;;;5.80;2.75;;;;;;;;;;6284453;28;20431;-80
2023/03/30 09:36:59;;;;;;;9.18;4.53;;;;;;;;;;6287205;28;20063;-78
2023/03/30 09:40:01;;;;;;;6.63;3.42;;;;;;;;;;6281422;28;20487;-80
2023/03/30 09:43:01;;;;;;;7.68;3.70;;;;;;;;;;6288515;28;20025;-80
2023/03/30 09:46:04;;;;;;;6.40;3.20;;;;;;;;;;6291692;28;20055;-79
2023/03/30 09:49:13;;;;;;;5.70;3.30;;;;;;;;;;6290330;28;20025;-80
2023/03/30 09:52:21;;;;;;;5.00;2.75;;;;;;;;;;6288287;28;20027;-80
2023/03/30 09:55:21;;;;;;;5.28;2.60;;;;;;;;;;6290802;28;20123;-80
2023/03/30 09:58:31;;;;;;;10.55;3.63;;;;;;;;;;6285515;28;20197;-80
2023/03/30 10:01:36;;;;;;;8.10;3.13;;;;;;;;;;6286503;28;20029;-80
2023/03/30 10:04:52;;;;;;;5.63;3.20;;;;;;;;;;6280361;28;20024;-79
2023/03/30 10:07:57;;;;;;;8.10;5.38;;;;;;;;;;6280503;28;20372;-80
2023/03/30 10:10:58;;;;;;;3.33;2.45;;;;;;;;;;6270264;28;20501;-80
2023/03/30 10:13:59;;;;;;;;;;;;;;;;;;6295510;28;20036;-78
2023/03/30 10:16:59;;;;;;;6.30;2.80;;;;;;;;;;6290955;28;19912;-80
2023/03/30 10:20:15;;;;;;;7.77;3.20;;;;;;;;;;6287957;28;20095;-80
2023/03/30 10:23:17;;;;;;;9.52;5.20;;;;;;;;;;6288350;28;20490;-79
2023/03/30 10:26:20;;;;;;;4.88;2.38;;;;;;;;;;6289130;28;20053;-76
2023/03/30 10:29:21;;;;;;;6.82;2.67;;;;;;;;;;6285315;28;20481;-80
2023/03/30 10:32:21;;;;;;;;;;;;;;;;;;6290790;28;20073;-80
2023/03/30 10:35:24;;;;;;;5.43;2.75;;;;;;;;;;6285303;28;19912;-79
2023/03/30 10:38:28;;;;;;;6.28;3.83;;;;;;;;;;6285301;28;20478;-80
2023/03/30 10:41:29;;;;;;;6.00;2.78;;;;;;;;;;6293858;28;20494;-80
2023/03/30 10:44:30;;;;;;;5.30;2.90;;;;;;;;;;6293587;28;20055;-80
2023/03/30 10:47:39;;;;;;;6.80;2.97;;;;;;;;;;6293377;28;21332;-78
2023/03/30 10:50:54;;;;;;;6.57;3.03;;;;;;;;;;6285641;28;20020;-80
2023/03/30 10:54:04;;;;;;;6.20;2.72;;;;;;;;;;6294268;28;20035;-80
2023/03/30 10:57:07;;;;;;;8.65;3.25;;;;;;;;;;6285250;28;20029;-79
2023/03/30 11:00:19;;;;;;;5.90;2.80;;;;;;;;;;6281210;28;20036;-78
2023/03/30 11:03:23;;;;;;;6.82;2.80;;;;;;;;;;6283224;28;20503;-77
2023/03/30 11:06:25;;;;;;;3.85;2.45;;;;;;;;;;6287460;28;20028;-78
2023/03/30 11:09:27;;;;;;;4.47;2.80;;;;;;;;;;6285304;28;20032;-79
2023/03/30 11:12:31;;;;;;;7.63;3.58;;;;;;;;;;6292891;28;20029;-79
2023/03/30 11:15:38;;;;;;;16.98;3.30;;;;;;;;;;6291486;28;20490;-79
2023/03/30 11:18:46;;;;;;;5.22;2.65;;;;;;;;;;6286294;28;20041;-79
2023/03/30 11:22:02;;;;;;;6.15;2.83;;;;;;;;;;6287601;28;20036;-79
2023/03/30 11:25:05;;;;;;;12.35;3.28;;;;;;;;;;6290941;28;20064;-78
2023/03/30 11:28:23;;;;;;;9.45;2.92;;;;;;;;;;6294178;28;20044;-78
2023/03/30 11:31:23;;;;;;;7.32;3.40;;;;;;;;;;6290236;28;20033;-79
2023/03/30 11:34:27;;;;;;;5.30;2.33;;;;;;;;;;6283266;28;20398;-79
2023/03/30 11:37:31;;;;;;;7.25;3.05;;;;;;;;;;6285404;28;20439;-79
2023/03/30 11:40:43;;;;;;;5.75;3.22;;;;;;;;;;6288356;28;20032;-79
2023/03/30 11:43:43;;;;;;;;;;;;;;;;;;6284044;28;20047;-79
2023/03/30 11:46:44;;;;;;;10.63;3.03;;;;;;;;;;6291134;28;20451;-79
2023/03/30 11:49:45;;;;;;;7.90;4.05;;;;;;;;;;6271006;28;20028;-79
2023/03/30 11:52:55;;;;;;;12.27;3.70;;;;;;;;;;6292108;28;20474;-79
2023/03/30 11:56:14;;;;;;;9.70;3.70;;;;;;;;;;6292420;28;21145;-79
2023/03/30 11:59:17;;;;;;;7.75;3.33;;;;;;;;;;6289301;28;20021;-78
2023/03/30 12:02:18;;;;;;;7.97;3.05;;;;;;;;;;6290300;28;20035;-79
2023/03/30 12:05:26;;;;;;;7.43;4.10;;;;;;;;;;6293800;28;20487;-79
2023/03/30 12:08:37;;;;;;;9.40;3.72;;;;;;;;;;6290523;28;20131;-79
2023/03/30 12:11:40;;;;;;;6.72;3.35;;;;;;;;;;6292386;28;20040;-78
2023/03/30 12:14:56;;;;;;;11.88;3.55;;;;;;;;;;6291695;28;20108;-79
2023/03/30 12:18:02;;;;;;;10.68;3.92;;;;;;;;;;6291689;28;20070;-79
2023/03/30 12:21:16;;;;;;;8.02;3.60;;;;;;;;;;6292962;28;20103;-79
2023/03/30 12:24:19;;;;;;;9.52;3.47;;;;;;;;;;6285355;28;20039;-79
2023/03/30 12:27:21;;;;;;;6.53;3.13;;;;;;;;;;6279770;28;20030;-80
2023/03/30 12:30:29;;;;;;;5.47;2.95;;;;;;;;;;6288926;28;20029;-79
2023/03/30 12:33:33;;;;;;;7.85;3.70;;;;;;;;;;6292951;28;20020;-79
2023/03/30 12:36:37;;;;;;;7.13;3.22;;;;;;;;;;6291367;28;20052;-79
2023/03/30 12:39:47;;;;;;;12.50;4.40;;;;;;;;;;6288712;28;20105;-79
2023/03/30 12:43:08;;;;;;;7.15;4.07;;;;;;;;;;6281489;28;20315;-79
2023/03/30 12:46:18;;;;;;;10.40;3.90;;;;;;;;;;6285607;28;20047;-78
2023/03/30 12:49:19;;;;;;;11.67;3.83;;;;;;;;;;6289706;28;20383;-79
2023/03/30 12:52:19;;;;;;;6.37;3.13;;;;;;;;;;6281377;28;20029;-79
2023/03/30 12:55:20;;;;;;;12.68;4.93;;;;;;;;;;6286422;28;20413;-78
2023/03/30 12:58:38;;;;;;;9.20;4.20;;;;;;;;;;6280096;28;20469;-78
2023/03/30 13:01:44;;;;;;;9.25;3.63;;;;;;;;;;6276526;28;20025;-78
2023/03/30 13:04:47;;;;;;;8.35;3.17;;;;;;;;;;6287129;28;20035;-79
2023/03/30 13:07:48;;;;;;;12.52;4.78;;;;;;;;;;6286262;28;20021;-78
2023/03/30 13:10:49;;;;;;;10.45;3.78;;;;;;;;;;6281220;28;20403;-79
2023/03/30 13:13:57;;;;;;;9.83;3.27;;;;;;;;;;6288257;28;20103;-79
2023/03/30 13:16:57;;;;;;;7.78;3.13;;;;;;;;;;6288129;28;20039;-79
2023/03/30 13:20:12;;;;;;;12.87;4.40;;;;;;;;;;6289614;28;20135;-79
2023/03/30 13:23:12;;;;;;;7.45;3.28;;;;;;;;;;6293921;28;20024;-78
2023/03/30 13:26:25;;;;;;;20.05;5.30;;;;;;;;;;6294513;28;20490;-80
2023/03/30 13:29:29;;;;;;;7.07;3.10;;;;;;;;;;6293509;28;20522;-79
2023/03/30 13:33:10;;;;;;;12.00;3.85;;;;;;;;;;6289859;28;20057;-80
2023/03/30 13:36:10;;;;;;;6.13;2.90;;;;;;;;;;6192325;28;20037;-80
2023/03/30 13:39:16;;;;;;;9.67;5.07;;;;;;;;;;6278880;28;20107;-79
2023/03/30 13:42:35;;;;;;;6.25;3.60;;;;;;;;;;6276019;28;20483;-80
2023/03/30 13:45:54;;;;;;;15.95;4.75;;;;;;;;;;6279880;28;20039;-78
2023/03/30 13:49:00;;;;;;;9.68;3.53;;;;;;;;;;6294622;28;20031;-76
2023/03/30 13:52:08;;;;;;;18.08;5.35;;;;;;;;;;6294222;28;20029;-76
2023/03/30 13:55:16;;;;;;;8.63;3.28;;;;;;;;;;6277927;28;20482;-76
2023/03/30 13:58:16;;;;;;;13.52;4.82;;;;;;;;;;6286145;28;20094;-76
2023/03/30 14:01:19;;;;;;;13.88;4.88;;;;;;;;;;6284286;28;20099;-76
2023/03/30 14:04:19;;;;;;;11.90;5.53;;;;;;;;;;6286806;28;20033;-76
2023/03/30 14:07:20;;;;;;;9.53;3.60;;;;;;;;;;6289516;28;20095;-76
2023/03/30 14:10:21;;;;;;;;;;;;;;;;;;6284167;28;20021;-76
2023/03/30 14:13:21;;;;;;;13.38;4.18;;;;;;;;;;6286447;28;20081;-75
2023/03/30 14:16:23;;;;;;;9.67;3.93;;;;;;;;;;6293489;28;20037;-76
2023/03/30 14:19:27;;;;;;;9.82;3.60;;;;;;;;;;6283049;28;20021;-75
2023/03/30 14:22:28;;;;;;;12.57;5.68;;;;;;;;;;6287938;28;20027;-75
2023/03/30 14:25:37;;;;;;;11.80;5.68;;;;;;;;;;6287539;28;20520;-76
2023/03/30 14:28:40;;;;;;;20.88;6.65;;;;;;;;;;6285915;28;20028;-76
2023/03/30 14:31:41;;;;;;;21.35;7.85;;;;;;;;;;6265149;28;20021;-76
2023/03/30 14:34:45;;;;;;;16.98;7.07;;;;;;;;;;6286358;28;20032;-76
2023/03/30 14:37:46;;;;;;;20.88;5.25;;;;;;;;;;6280117;28;20393;-75
2023/03/30 14:40:47;;;;;;;10.77;5.70;;;;;;;;;;6289930;28;20074;-75
2023/03/30 14:43:51;;;;;;;11.80;6.97;;;;;;;;;;6290369;28;20021;-75
2023/03/30 14:46:54;;;;;;;16.48;5.90;;;;;;;;;;6294100;28;20028;-75
2023/03/30 14:49:56;;;;;;;23.30;8.73;;;;;;;;;;6289951;28;20029;-75
2023/03/30 14:52:56;;;;;;;18.25;7.82;;;;;;;;;;6286774;28;20032;-75
2023/03/30 14:55:58;;;;;;;19.70;8.70;;;;;;;;;;6282707;28;20483;-75
2023/03/30 14:58:58;;;;;;;;;;;;;;;;;;6288825;28;20036;-75
2023/03/30 15:01:59;;;;;;;23.85;7.13;;;;;;;;;;6293970;28;19912;-75
2023/03/30 15:05:00;;;;;;;16.35;5.43;;;;;;;;;;6295526;28;20075;-75
2023/03/30 15:08:01;;;;;;;21.63;10.13;;;;;;;;;;6290526;28;20082;-75
2023/03/30 15:11:06;;;;;;;16.85;6.68;;;;;;;;;;6296123;28;20029;-75
2023/03/30 15:14:08;;;;;;;17.83;7.57;;;;;;;;;;6290250;28;20416;-75
2023/03/30 15:17:19;;;;;;;8.10;4.78;;;;;;;;;;6289462;28;20025;-75
2023/03/30 15:20:20;;;;;;;16.93;7.50;;;;;;;;;;6287384;28;20032;-75
2023/03/30 15:23:20;;;;;;;16.00;8.07;;;;;;;;;;6291025;28;20402;-75
2023/03/30 15:26:20;;;;;;;18.33;7.83;;;;;;;;;;6287437;28;20580;-75
2023/03/30 15:29:21;;;;;;;17.47;8.53;;;;;;;;;;6292153;28;20063;-75
2023/03/30 15:32:29;;;;;;;11.93;6.40;;;;;;;;;;6275135;28;20108;-75
2023/03/30 15:35:31;;;;;;;13.10;6.18;;;;;;;;;;6264105;28;20043;-75
2023/03/30 15:38:42;;;;;;;14.75;6.97;;;;;;;;;;6290364;28;20123;-75
2023/03/30 15:41:47;;;;;;;16.75;8.57;;;;;;;;;;6290476;28;20536;-75
2023/03/30 15:44:59;;;;;;;21.70;7.75;;;;;;;;;;6285445;28;20024;-75
2023/03/30 15:48:00;;;;;;;14.80;6.07;;;;;;;;;;6288026;28;21032;-75
2023/03/30 15:51:15;;;;;;;15.97;7.53;;;;;;;;;;6288259;28;20021;-75
2023/03/30 15:54:18;;;;;;;17.85;7.90;;;;;;;;;;6283380;28;20070;-75
2023/03/30 15:57:20;;;;;;;17.90;8.68;;;;;;;;;;6292505;28;20518;-75
2023/03/30 16:00:22;;;;;;;20.20;11.43;;;;;;;;;;6291168;28;20579;-75
2023/03/30 16:03:39;;;;;;;16.38;8.90;;;;;;;;;;6280998;28;20427;-75
2023/03/30 16:06:40;;;;;;;16.90;7.97;;;;;;;;;;6279585;28;20033;-75
2023/03/30 16:09:40;;;;;;;22.08;9.52;;;;;;;;;;6284147;28;20031;-75
2023/03/30 16:12:42;;;;;;;16.90;8.70;;;;;;;;;;6280182;28;20024;-75
2023/03/30 16:15:43;;;;;;;;;;;;;;;;;;6293777;28;20028;-75
2023/03/30 16:18:44;;;;;;;18.10;8.93;;;;;;;;;;6292916;28;19963;-75
2023/03/30 16:21:44;;;;;;;17.60;8.27;;;;;;;;;;6290078;28;20046;-75
2023/03/30 16:24:45;;;;;;;23.47;10.53;;;;;;;;;;6290446;28;20040;-75
2023/03/30 16:27:45;;;;;;;17.33;9.17;;;;;;;;;;6288394;28;20095;-75
2023/03/30 16:30:46;;;;;;;21.27;10.43;;;;;;;;;;6292263;28;20024;-75
2023/03/30 16:33:47;;;;;;;17.38;8.25;;;;;;;;;;6288368;28;20386;-75
2023/03/30 16:36:48;;;;;;;19.10;10.60;;;;;;;;;;6289125;28;20020;-75
2023/03/30 16:39:49;;;;;;;22.63;11.33;;;;;;;;;;6288327;28;20405;-75
2023/03/30 16:42:49;;;;;;;17.73;8.90;;;;;;;;;;6292643;28;20024;-76
2023/03/30 16:45:50;;;;;;;17.13;9.30;;;;;;;;;;6288465;28;20021;-75
2023/03/30 16:48:51;;;;;;;20.23;10.57;;;;;;;;;;6284018;28;20818;-75
2023/03/30 16:51:52;;;;;;;19.50;9.27;;;;;;;;;;6279612;28;20048;-75
2023/03/30 16:54:52;;;;;;;19.47;10.27;;;;;;;;;;6287688;28;20031;-75
2023/03/30 16:57:52;;;;;;;14.00;8.07;;;;;;;;;;6288720;28;20063;-75
2023/03/30 17:00:55;;;;;;;19.73;9.77;;;;;;;;;;6275744;28;20028;-75
2023/03/30 17:03:55;;;;;;;26.85;12.45;;;;;;;;;;6285220;28;20020;-75
2023/03/30 17:06:56;;;;;;;22.37;12.03;;;;;;;;;;6289897;28;20027;-75
2023/03/30 17:09:56;;;;;;;27.47;12.27;;;;;;;;;;6292234;28;20097;-75
2023/03/30 17:12:56;;;;;;;28.97;15.27;;;;;;;;;;6281961;28;20150;-76
2023/03/30 17:15:58;;;;;;;27.53;12.80;;;;;;;;;;6286317;28;20028;-76
2023/03/30 17:18:58;;;;;;;16.75;10.38;;;;;;;;;;6290851;28;20082;-77
2023/03/30 17:21:59;;;;;;;20.87;11.83;;;;;;;;;;6284476;28;20024;-76
2023/03/30 17:24:59;;;;;;;19.10;9.73;;;;;;;;;;6287639;28;20083;-76
2023/03/30 17:28:03;;;;;;;19.17;10.93;;;;;;;;;;6290480;28;20017;-76
2023/03/30 17:31:05;;;;;;;19.25;12.07;;;;;;;;;;6290448;28;20013;-76
2023/03/30 17:34:06;;;;;;;;;;;;;;;;;;6281384;28;20055;-76
2023/03/30 17:37:07;;;;;;;29.03;12.03;;;;;;;;;;6289387;28;19912;-76
2023/03/30 17:40:15;;;;;;;34.30;21.63;;;;;;;;;;6271205;28;20039;-76
2023/03/30 17:43:16;;;;;;;24.45;15.27;;;;;;;;;;6280148;28;20453;-76
2023/03/30 17:46:17;;;;;;;28.03;15.27;;;;;;;;;;6280958;28;20031;-76
2023/03/30 17:49:17;;;;;;;27.13;14.27;;;;;;;;;;6289832;28;20043;-75
2023/03/30 17:52:17;;;;;;;29.13;15.27;;;;;;;;;;6270685;28;20021;-77
2023/03/30 17:55:18;;;;;;;27.92;14.48;;;;;;;;;;6286285;28;20103;-77
2023/03/30 17:58:28;;;;;;;34.83;17.00;;;;;;;;;;6285503;28;20544;-77
2023/03/30 18:01:29;;;;;;;30.00;17.17;;;;;;;;;;6282557;28;20111;-77